Data for 12/17/2009

Time Sea-Level Adjusted Pressure Absolute Pressure Temperature Relative Humidity Dew Point   
(mb) (inHg) (mb) (inHg) (C) (F) (%) (C) (F)
00:05 1020 30.12 849 25.07 3.7 38.6 56 -4.3 24.3
00:10 1020 30.12 849 25.07 3.8 38.8 56 -4.2 24.5
00:15 1020 30.12 849 25.07 3.8 38.8 56 -4.2 24.4
00:20 1020 30.12 849 25.07 3.9 39 55 -4.3 24.3
00:25 1020 30.12 849 25.07 3.9 38.9 59 -3.5 25.8
00:30 1020 30.12 849 25.07 3.9 39 55 -4.3 24.3
00:35 1020 30.12 849 25.07 3.9 39.1 55 -4.4 24.1
00:40 1020 30.12 849 25.07 3.8 38.9 55 -4.4 24.2
00:45 1020 30.12 849 25.07 4 39.1 54 -4.6 23.8
00:50 1020 30.12 849 25.07 4.2 39.5 55 -4.1 24.6
00:55 1020 30.12 849 25.07 4.1 39.4 54 -4.3 24.3
01:00 1020 30.12 849 25.07 4 39.2 56 -4 24.7
01:05 1020 30.12 849 25.07 3.5 38.3 58 -3.9 25
01:10 1020 30.12 849 25.07 3.2 37.7 59 -4 24.7
01:15 1020 30.12 849 25.07 3 37.3 60 -4 24.8
01:20 1020 30.12 849 25.07 2.8 37 61 -4.1 24.7
01:25 1020 30.12 850 25.1 2.8 37.1 60 -4.1 24.6
01:30 1020 30.12 850 25.1 3 37.4 60 -4.1 24.7
01:35 1020 30.12 850 25.1 3.1 37.6 63 -3.4 25.9
01:40 1020 30.12 850 25.1 3.2 37.8 59 -4.1 24.7
01:45 1020 30.12 850 25.1 3.2 37.8 59 -4 24.8
01:50 1020 30.12 850 25.1 3.1 37.5 59 -4.1 24.6
01:55 1020 30.12 850 25.1 3.1 37.7 59 -4 24.7
02:00 1020 30.12 850 25.1 2.8 37 61 -4 24.8
02:05 1021 30.15 850 25.1 2.4 36.3 62 -4.2 24.4
02:10 1020 30.12 850 25.1 2 35.7 62 -4.5 23.9
02:15 1021 30.15 850 25.1 1.8 35.3 62 -4.7 23.5
02:20 1021 30.15 850 25.1 1.3 34.4 63 -5 23
02:25 1021 30.15 850 25.1 1.3 34.3 62 -5.2 22.6
02:30 1021 30.15 850 25.1 1.9 35.3 60 -5 22.9
02:35 1021 30.15 850 25.1 2.2 35.9 58 -5.3 22.5
02:40 1021 30.15 850 25.1 2.4 36.3 59 -4.8 23.3
02:45 1021 30.15 850 25.1 2.4 36.4 60 -4.6 23.7
02:50 1021 30.15 850 25.1 2.6 36.6 59 -4.7 23.5
02:55 1021 30.15 850 25.1 2.6 36.7 59 -4.6 23.6
03:00 1021 30.15 850 25.1 2.4 36.4 59 -4.7 23.6
03:05 1021 30.15 850 25.1 2.1 35.8 61 -4.6 23.8
03:10 1021 30.15 850 25.1 2.5 36.4 59 -4.8 23.3
03:15 1021 30.15 850 25.1 2.6 36.8 59 -4.6 23.7
03:20 1021 30.15 850 25.1 2.8 37 58 -4.7 23.6
03:25 1021 30.15 850 25.1 2.9 37.2 59 -4.3 24.2
03:30 1021 30.15 850 25.1 2.9 37.2 58 -4.6 23.7
03:35 1021 30.15 850 25.1 2.6 36.6 60 -4.5 23.9
03:40 1021 30.15 850 25.1 2.4 36.3 60 -4.6 23.7
03:45 1021 30.15 850 25.1 2.3 36.2 60 -4.7 23.6
03:50 1021 30.15 850 25.1 1.6 34.8 61 -5.2 22.6
03:55 1021 30.15 850 25.1 1.9 35.4 60 -5.2 22.7
04:00 1021 30.15 850 25.1 1.9 35.5 62 -4.7 23.6
04:05 1021 30.15 850 25.1 1.8 35.2 59 -5.4 22.3
04:10 1021 30.15 850 25.1 1.8 35.2 59 -5.4 22.3
04:15 1021 30.15 850 25.1 1.9 35.4 58 -5.4 22.2
04:20 1021 30.15 850 25.1 1.3 34.3 64 -4.8 23.4
04:25 1021 30.15 850 25.1 -0.2 31.7 68 -5.4 22.4
04:30 1021 30.15 850 25.1 -0.3 31.5 66 -5.8 21.5
04:35 1021 30.15 850 25.1 -0.6 30.9 68 -5.8 21.6
04:40 1021 30.15 850 25.1 -0.6 30.8 68 -5.8 21.6
04:45 1021 30.15 850 25.1 -0.5 31.2 67 -5.8 21.6
04:50 1021 30.15 850 25.1 0.1 32.1 65 -5.8 21.6
04:55 1020 30.12 850 25.1 0.3 32.5 66 -5.4 22.4
05:00 1020 30.12 850 25.1 0.1 32.3 67 -5.3 22.4
05:05 1021 30.15 850 25.1 0.2 32.4 66 -5.4 22.3
05:10 1021 30.15 850 25.1 0.4 32.8 64 -5.5 22.1
05:15 1021 30.15 850 25.1 0.9 33.5 63 -5.4 22.2
05:20 1021 30.15 850 25.1 1.1 33.9 63 -5.3 22.5
05:25 1021 30.15 850 25.1 1.2 34.1 62 -5.3 22.5
05:30 1021 30.15 850 25.1 1.4 34.5 61 -5.2 22.6
05:35 1021 30.15 850 25.1 1.9 35.4 59 -5.4 22.3
05:40 1021 30.15 850 25.1 2.4 36.3 57 -5.2 22.7
05:45 1021 30.15 850 25.1 2.2 36 59 -5 22.9
05:50 1021 30.15 850 25.1 2.2 36 58 -5.1 22.8
05:55 1021 30.15 850 25.1 2.3 36.1 58 -5.1 22.9
06:00 1021 30.15 850 25.1 2.2 36 60 -4.8 23.3
06:05 1021 30.15 850 25.1 2 35.6 61 -4.8 23.3
06:10 1021 30.15 850 25.1 1.8 35.2 62 -4.7 23.6
06:15 1021 30.15 850 25.1 1.5 34.8 67 -3.9 25
06:20 1021 30.15 850 25.1 1.6 35 64 -4.4 24.2
06:25 1021 30.15 850 25.1 1.6 34.9 65 -4.2 24.4
06:30 1021 30.15 850 25.1 1.5 34.7 65 -4.4 24.1
06:35 1021 30.15 850 25.1 1 33.9 66 -4.7 23.5
06:40 1021 30.15 850 25.1 1.1 34 66 -4.6 23.8
06:45 1021 30.15 850 25.1 1.2 34.2 67 -4.2 24.5
06:50 1021 30.15 850 25.1 1.2 34.2 68 -4.1 24.6
06:55 1021 30.15 850 25.1 1.3 34.3 69 -3.9 25
07:00 1021 30.15 850 25.1 1.3 34.4 68 -4 24.9
07:05 1021 30.15 850 25.1 1.3 34.3 68 -4 24.8
07:10 1021 30.15 851 25.13 1.2 34.2 68 -4 24.7
07:15 1021 30.15 850 25.1 1.1 34.1 69 -3.9 25
07:20 1021 30.15 850 25.1 1.3 34.3 67 -4.1 24.6
07:25 1021 30.15 850 25.1 1.4 34.5 68 -3.9 24.9
07:30 1021 30.15 851 25.13 1.5 34.7 67 -3.9 24.9
07:35 1021 30.15 851 25.13 1.4 34.6 68 -3.9 25
07:40 1021 30.15 851 25.13 1.8 35.3 66 -3.8 25.1
07:45 1021 30.15 851 25.13 1.8 35.2 68 -3.5 25.8
07:50 1021 30.15 851 25.13 1.7 35 68 -3.7 25.3
07:55 1021 30.15 850 25.1 1.5 34.6 68 -3.7 25.3
08:00 1021 30.15 850 25.1 0.8 33.5 70 -4 24.8
08:05 1021 30.15 851 25.13 0.6 33.1 71 -4 24.7
08:10 1021 30.15 851 25.13 0.6 33.1 72 -3.9 25
08:15 1021 30.15 851 25.13 1 33.8 71 -3.8 25.2
08:20 1021 30.15 851 25.13 0.8 33.4 68 -4.4 24
08:25 1021 30.15 851 25.13 0.7 33.3 69 -4.3 24.3
08:30 1022 30.18 851 25.13 0.8 33.5 69 -4.3 24.3
08:35 1022 30.18 851 25.13 0.8 33.5 68 -4.4 24.1
08:40 1022 30.18 851 25.13 0.5 32.9 70 -4.3 24.2
08:45 1022 30.18 851 25.13 0.7 33.3 68 -4.5 23.9
08:50 1022 30.18 851 25.13 0.9 33.6 69 -4.1 24.6
08:55 1022 30.18 851 25.13 0.7 33.3 68 -4.4 24
09:00 1022 30.18 851 25.13 0.3 32.5 72 -4.1 24.6
09:05 1022 30.18 851 25.13 0.5 32.8 69 -4.5 23.8
09:10 1022 30.18 851 25.13 0.3 32.6 71 -4.3 24.2
09:15 1022 30.18 851 25.13 0.3 32.6 70 -4.5 24
09:20 1022 30.18 851 25.13 0.4 32.7 70 -4.4 24
09:25 1022 30.18 851 25.13 -0.1 31.8 71 -4.7 23.5
09:30 1022 30.18 851 25.13 -0.3 31.5 71 -4.9 23.3
09:35 1022 30.18 851 25.13 0.2 32.3 69 -4.9 23.2
09:40 1022 30.18 851 25.13 0.5 32.9 67 -4.9 23.2
09:45 1022 30.18 851 25.13 0.5 32.9 69 -4.6 23.8
09:50 1022 30.18 852 25.16 0.6 33 69 -4.5 23.9
09:55 1022 30.18 852 25.16 0.9 33.6 68 -4.4 24.1
10:00 1023 30.21 852 25.16 1.5 34.7 67 -4.1 24.7
10:05 1023 30.21 852 25.16 1.9 35.5 65 -4 24.8
10:10 1023 30.21 852 25.16 1.6 34.9 65 -4.3 24.3
10:15 1023 30.21 852 25.16 1.1 33.9 67 -4.3 24.2
10:20 1023 30.21 852 25.16 1.1 34 68 -4.2 24.4
10:25 1023 30.21 852 25.16 1.9 35.4 65 -4 24.8
10:30 1023 30.21 852 25.16 2.5 36.5 64 -3.6 25.5
10:35 1023 30.21 852 25.16 2.9 37.2 63 -3.5 25.8
10:40 1023 30.21 852 25.16 2.9 37.3 64 -3.2 26.2
10:45 1023 30.21 852 25.16 2.9 37.2 64 -3.2 26.2
10:50 1023 30.21 852 25.16 2.7 36.9 65 -3.1 26.3
10:55 1023 30.21 852 25.16 2.8 37 68 -2.6 27.3
11:00 1023 30.21 852 25.16 3.1 37.6 71 -1.6 29.2
11:05 1023 30.21 852 25.16 3.1 37.6 73 -1.3 29.7
11:10 1023 30.21 852 25.16 3 37.5 75 -1 30.2
11:15 1023 30.21 852 25.16 3.1 37.6 75 -1 30.3
11:20 1023 30.21 852 25.16 3.3 37.9 75 -0.8 30.5
11:25 1023 30.21 852 25.16 3.2 37.8 76 -0.7 30.8
11:30 1023 30.21 852 25.16 3.1 37.6 76 -0.7 30.7
11:35 1023 30.21 852 25.16 3.1 37.6 76 -0.7 30.7
11:40 1023 30.21 852 25.16 3.2 37.7 76 -0.7 30.8
11:45 1023 30.21 852 25.16 3.3 37.9 75 -0.8 30.6
11:50 1023 30.21 852 25.16 3.3 37.9 72 -1.2 29.8
11:55 1023 30.21 852 25.16 3.4 38.1 72 -1.2 29.9
12:00 1023 30.21 852 25.16 3.4 38.2 69 -1.7 29
12:05 1023 30.21 852 25.16 2.8 37.1 71 -1.9 28.6
12:10 1023 30.21 852 25.16 3 37.4 70 -1.9 28.5
12:15 1023 30.21 852 25.16 3.1 37.6 71 -1.7 28.9
12:20 1022 30.18 852 25.16 3.3 37.9 70 -1.7 29
12:25 1022 30.18 852 25.16 4.3 39.8 66 -1.5 29.3
12:30 1023 30.21 852 25.16 4.6 40.3 65 -1.4 29.5
12:35 1023 30.21 852 25.16 4.6 40.3 66 -1.3 29.7
12:40 1023 30.21 852 25.16 5.1 41.3 63 -1.4 29.5
12:45 1023 30.21 852 25.16 5.3 41.5 62 -1.4 29.5
12:50 1023 30.21 852 25.16 4.8 40.7 65 -1.1 30
12:55 1023 30.21 852 25.16 4.1 39.4 67 -1.5 29.3
13:00 1023 30.21 852 25.16 3.8 38.9 70 -1.2 29.8
13:05 1023 30.21 852 25.16 3.7 38.6 70 -1.3 29.6
13:10 1023 30.21 852 25.16 3.4 38.1 69 -1.9 28.7
13:15 1023 30.21 852 25.16 3.7 38.6 68 -1.8 28.8
13:20 1023 30.21 852 25.16 3.9 39 68 -1.5 29.2
13:25 1022 30.18 852 25.16 3.9 39 68 -1.5 29.3
13:30 1022 30.18 852 25.16 4 39.1 66 -1.7 28.9
13:35 1022 30.18 852 25.16 3.9 39 69 -1.3 29.7
13:40 1022 30.18 851 25.13 3.6 38.5 68 -1.7 29
13:45 1022 30.18 852 25.16 3.7 38.6 68 -1.7 28.9
13:50 1022 30.18 852 25.16 3.7 38.6 70 -1.3 29.7
13:55 1022 30.18 851 25.13 3.1 37.6 73 -1.2 29.8
14:00 1022 30.18 851 25.13 2.8 37.1 73 -1.4 29.4
14:05 1022 30.18 852 25.16 3 37.5 71 -1.6 29
14:10 1022 30.18 852 25.16 3.3 38 71 -1.4 29.6
14:15 1022 30.18 852 25.16 3.3 37.9 71 -1.5 29.2
14:20 1022 30.18 852 25.16 3.6 38.5 67 -1.9 28.6
14:25 1022 30.18 852 25.16 3.8 38.9 68 -1.5 29.3
14:30 1022 30.18 852 25.16 3.8 38.8 68 -1.5 29.3
14:35 1022 30.18 852 25.16 3.8 38.8 68 -1.6 29.1
14:40 1023 30.21 852 25.16 3.8 38.9 66 -1.9 28.5
14:45 1023 30.21 852 25.16 3.7 38.7 67 -1.9 28.5
14:50 1023 30.21 852 25.16 3.5 38.3 66 -2.3 27.9
14:55 1023 30.21 852 25.16 3.5 38.3 65 -2.5 27.6
15:00 1023 30.21 852 25.16 3.5 38.2 65 -2.5 27.5
15:05 1023 30.21 852 25.16 3.2 37.7 67 -2.3 27.8
15:10 1023 30.21 852 25.16 3.1 37.5 68 -2.4 27.7
15:15 1023 30.21 852 25.16 3.2 37.7 69 -2 28.3
15:20 1023 30.21 852 25.16 2.7 36.9 69 -2.3 27.8
15:25 1023 30.21 852 25.16 3 37.4 68 -2.3 27.8
15:30 1023 30.21 852 25.16 3.1 37.6 69 -2 28.4
15:35 1023 30.21 852 25.16 3.2 37.7 67 -2.3 27.9
15:40 1023 30.21 852 25.16 3.4 38 67 -2.3 27.9
15:45 1023 30.21 852 25.16 3.6 38.6 65 -2.4 27.7
15:50 1023 30.21 852 25.16 3.7 38.6 65 -2.3 27.9
15:55 1023 30.21 852 25.16 3.6 38.4 64 -2.5 27.4
16:00 1023 30.21 852 25.16 3.5 38.3 65 -2.5 27.6
16:05 1023 30.21 853 25.19 3.4 38 66 -2.3 27.8
16:10 1023 30.21 853 25.19 3.2 37.8 68 -2.1 28.1
16:15 1023 30.21 853 25.19 2.8 37.1 71 -1.8 28.7
16:20 1024 30.24 853 25.19 2.4 36.3 75 -1.6 29.1
16:25 1024 30.24 853 25.19 2.3 36.1 76 -1.5 29.4
16:30 1024 30.24 853 25.19 2 35.7 77 -1.5 29.3
16:35 1024 30.24 853 25.19 1.8 35.3 79 -1.5 29.4
16:40 1024 30.24 853 25.19 1.8 35.2 79 -1.5 29.3
16:45 1024 30.24 853 25.19 1.9 35.4 78 -1.6 29.2
16:50 1024 30.24 853 25.19 1.8 35.2 78 -1.6 29.2
16:55 1024 30.24 853 25.19 1.8 35.3 78 -1.6 29.2
17:00 1024 30.24 853 25.19 1.9 35.5 77 -1.6 29.1
17:05 1024 30.24 853 25.19 1.9 35.4 78 -1.6 29.1
17:10 1024 30.24 853 25.19 1.8 35.2 78 -1.6 29
17:15 1024 30.24 853 25.19 1.6 34.9 78 -1.7 28.9
17:20 1024 30.24 853 25.19 1.5 34.6 78 -2 28.4
17:25 1024 30.24 853 25.19 1.3 34.4 77 -2.2 28
17:30 1024 30.24 853 25.19 1.6 34.8 75 -2.4 27.6
17:35 1024 30.24 853 25.19 1.4 34.5 75 -2.5 27.4
17:40 1024 30.24 853 25.19 1.3 34.3 74 -2.9 26.7
17:45 1024 30.24 853 25.19 1 33.8 73 -3.4 26
17:50 1024 30.24 853 25.19 1.2 34.1 72 -3.2 26.2
17:55 1024 30.24 853 25.19 1.1 34 73 -3.2 26.2
18:00 1024 30.24 853 25.19 1.2 34.2 71 -3.5 25.8
18:05 1024 30.24 853 25.19 1.2 34.2 72 -3.3 26.1
18:10 1024 30.24 853 25.19 0.9 33.6 72 -3.5 25.7
18:15 1024 30.24 853 25.19 1 33.8 72 -3.5 25.7
18:20 1024 30.24 853 25.19 0.9 33.6 73 -3.5 25.7
18:25 1024 30.24 853 25.19 0.7 33.2 73 -3.6 25.5
18:30 1024 30.24 853 25.19 0.6 33.1 74 -3.5 25.6
18:35 1024 30.24 854 25.22 0.5 32.9 74 -3.6 25.6
18:40 1024 30.24 854 25.22 0.7 33.3 73 -3.6 25.5
18:45 1024 30.24 854 25.22 0.9 33.7 74 -3.2 26.2
18:50 1024 30.24 854 25.22 0.7 33.3 74 -3.4 25.9
18:55 1024 30.24 854 25.22 0.9 33.6 72 -3.6 25.5
19:00 1024 30.24 854 25.22 1 33.7 71 -3.8 25.2
19:05 1024 30.24 854 25.22 1.2 34.2 68 -4 24.8
19:10 1025 30.27 854 25.22 1.2 34.1 69 -4 24.9
19:15 1024 30.24 854 25.22 1 33.8 70 -3.9 25
19:20 1024 30.24 854 25.22 0.6 33 69 -4.4 24.1
19:25 1025 30.27 854 25.22 1.1 34 66 -4.5 23.9
19:30 1025 30.27 854 25.22 1.4 34.5 65 -4.4 24
19:35 1025 30.27 854 25.22 1.3 34.4 66 -4.3 24.2
19:40 1025 30.27 854 25.22 0.7 33.2 68 -4.5 23.9
19:45 1025 30.27 854 25.22 0.4 32.8 69 -4.7 23.6
19:50 1025 30.27 854 25.22 0.2 32.4 69 -4.8 23.4
19:55 1025 30.27 854 25.22 0.1 32.2 69 -4.9 23.1
20:00 1025 30.27 854 25.22 0.2 32.3 68 -5 23
20:05 1025 30.27 854 25.22 0.2 32.4 68 -5 23.1
20:10 1025 30.27 854 25.22 -0.4 31.3 71 -5.1 22.9
20:15 1025 30.27 854 25.22 -0.9 30.4 70 -5.6 21.9
20:20 1025 30.27 854 25.22 -1.2 29.8 71 -5.8 21.5
20:25 1025 30.27 854 25.22 -1.2 29.9 70 -6 21.2
20:30 1025 30.27 854 25.22 -1.3 29.7 70 -6 21.2
20:35 1025 30.27 854 25.22 -1.3 29.7 70 -6.1 21.1
20:40 1025 30.27 854 25.22 -0.6 31 67 -6 21.1
20:45 1025 30.27 854 25.22 -0.3 31.4 66 -5.9 21.3
20:50 1025 30.27 854 25.22 -0.4 31.3 66 -6 21.1
20:55 1025 30.27 854 25.22 -0.6 30.8 67 -6.1 21.1
21:00 1025 30.27 854 25.22 -0.8 30.6 66 -6.4 20.5
21:05 1025 30.27 854 25.22 -0.8 30.6 66 -6.3 20.6
21:10 1025 30.27 854 25.22 -0.3 31.4 65 -6.1 20.9
21:15 1025 30.27 854 25.22 -0.2 31.6 65 -6 21.2
21:20 1025 30.27 854 25.22 -0 32 64 -6.1 21
21:25 1025 30.27 854 25.22 0.2 32.4 64 -5.8 21.5
21:30 1025 30.27 854 25.22 0.1 32.2 64 -5.8 21.6
21:35 1025 30.27 854 25.22 0 32 65 -5.9 21.4
21:40 1025 30.27 854 25.22 0 32 67 -5.5 22.1
21:45 1025 30.27 854 25.22 -0.3 31.5 68 -5.5 22.1
21:50 1025 30.27 854 25.22 -0.6 30.8 69 -5.6 21.9
21:55 1025 30.27 854 25.22 -0.5 31 68 -5.8 21.5
22:00 1025 30.27 854 25.22 -0.5 31.1 69 -5.6 22
22:05 1025 30.27 854 25.22 -0.9 30.3 70 -5.7 21.8
22:10 1025 30.27 855 25.25 -1.2 29.9 71 -5.8 21.6
22:15 1025 30.27 855 25.25 -0.9 30.3 67 -6.3 20.6
22:20 1025 30.27 855 25.25 -0.6 30.9 68 -5.9 21.5
22:25 1025 30.27 855 25.25 -0.7 30.8 67 -6 21.1
22:30 1025 30.27 855 25.25 -0.6 31 66 -6.2 20.8
22:35 1025 30.27 855 25.25 -0.4 31.2 64 -6.5 20.3
22:40 1025 30.27 855 25.25 -0.5 31.1 63 -6.7 19.9
22:45 1025 30.27 855 25.25 -0.4 31.2 62 -6.8 19.7
22:50 1025 30.27 855 25.25 -0.6 30.9 63 -6.8 19.8
22:55 1026 30.3 855 25.25 -0.8 30.5 64 -6.8 19.7
23:00 1026 30.3 855 25.25 -0.7 30.7 63 -6.9 19.6
23:05 1026 30.3 855 25.25 -0.6 31 63 -6.8 19.7
23:10 1026 30.3 855 25.25 -0.5 31.1 63 -6.8 19.8
23:15 1026 30.3 855 25.25 -0.5 31.1 62 -6.8 19.7
23:20 1026 30.3 855 25.25 -0.7 30.8 63 -6.8 19.7
23:25 1025 30.27 855 25.25 -0.9 30.4 64 -6.9 19.6
23:30 1026 30.3 855 25.25 -0.9 30.4 63 -6.9 19.5
23:35 1026 30.3 855 25.25 -0.8 30.5 64 -6.8 19.7
23:40 1026 30.3 855 25.25 -0.9 30.4 64 -6.9 19.6
23:45 1026 30.3 855 25.25 -0.9 30.3 64 -6.9 19.6
23:50 1026 30.3 855 25.25 -0.8 30.6 63 -7 19.5
23:55 1026 30.3 855 25.25 -0.9 30.4 64 -6.9 19.7
24:00 1026 30.3 855 25.25 -1 30.1 64 -6.9 19.5